sensor_id;sensor_type;location;lat;lon;timestamp;P1;durP1;ratioP1;P2;durP2;ratioP2
19341;SDS011;9807;48.258;12.690;2023-09-08T00:02:26;7.13;;;5.40;;
19341;SDS011;9807;48.258;12.690;2023-09-08T00:04:53;7.63;;;4.80;;
19341;SDS011;9807;48.258;12.690;2023-09-08T00:07:19;4.97;;;4.47;;
19341;SDS011;9807;48.258;12.690;2023-09-08T00:09:46;6.60;;;4.67;;
19341;SDS011;9807;48.258;12.690;2023-09-08T00:12:12;5.60;;;4.50;;
19341;SDS011;9807;48.258;12.690;2023-09-08T00:14:38;4.83;;;4.33;;
19341;SDS011;9807;48.258;12.690;2023-09-08T00:17:04;5.30;;;4.37;;
19341;SDS011;9807;48.258;12.690;2023-09-08T00:19:30;4.90;;;4.30;;
19341;SDS011;9807;48.258;12.690;2023-09-08T00:21:56;5.10;;;4.20;;
19341;SDS011;9807;48.258;12.690;2023-09-08T00:24:22;6.33;;;4.27;;
19341;SDS011;9807;48.258;12.690;2023-09-08T00:26:47;6.23;;;4.63;;
19341;SDS011;9807;48.258;12.690;2023-09-08T00:29:13;5.20;;;4.37;;
19341;SDS011;9807;48.258;12.690;2023-09-08T00:31:39;5.60;;;4.50;;
19341;SDS011;9807;48.258;12.690;2023-09-08T00:34:05;4.67;;;4.17;;
19341;SDS011;9807;48.258;12.690;2023-09-08T00:36:31;6.43;;;4.67;;
19341;SDS011;9807;48.258;12.690;2023-09-08T00:38:57;4.87;;;4.20;;
19341;SDS011;9807;48.258;12.690;2023-09-08T00:41:23;5.13;;;4.47;;
19341;SDS011;9807;48.258;12.690;2023-09-08T00:43:51;5.33;;;4.70;;
19341;SDS011;9807;48.258;12.690;2023-09-08T00:46:17;5.73;;;5.00;;
19341;SDS011;9807;48.258;12.690;2023-09-08T00:48:43;6.30;;;5.30;;
19341;SDS011;9807;48.258;12.690;2023-09-08T00:51:08;7.87;;;5.50;;
19341;SDS011;9807;48.258;12.690;2023-09-08T00:53:37;7.00;;;5.40;;
19341;SDS011;9807;48.258;12.690;2023-09-08T00:56:03;6.13;;;5.20;;
19341;SDS011;9807;48.258;12.690;2023-09-08T00:58:29;6.50;;;5.10;;
19341;SDS011;9807;48.258;12.690;2023-09-08T01:00:55;5.43;;;4.70;;
19341;SDS011;9807;48.258;12.690;2023-09-08T01:03:23;7.07;;;4.40;;
19341;SDS011;9807;48.258;12.690;2023-09-08T01:05:50;4.90;;;4.40;;
19341;SDS011;9807;48.258;12.690;2023-09-08T01:08:17;6.93;;;4.50;;
19341;SDS011;9807;48.258;12.690;2023-09-08T01:10:43;5.77;;;4.60;;
19341;SDS011;9807;48.258;12.690;2023-09-08T01:13:10;5.33;;;4.03;;
19341;SDS011;9807;48.258;12.690;2023-09-08T01:15:36;6.93;;;4.53;;
19341;SDS011;9807;48.258;12.690;2023-09-08T01:18:01;6.97;;;5.33;;
19341;SDS011;9807;48.258;12.690;2023-09-08T01:20:30;8.40;;;5.37;;
19341;SDS011;9807;48.258;12.690;2023-09-08T01:26:07;6.40;;;4.90;;
19341;SDS011;9807;48.258;12.690;2023-09-08T01:28:35;6.93;;;4.63;;
19341;SDS011;9807;48.258;12.690;2023-09-08T01:31:02;5.80;;;4.03;;
19341;SDS011;9807;48.258;12.690;2023-09-08T01:33:29;8.03;;;5.70;;
19341;SDS011;9807;48.258;12.690;2023-09-08T01:35:55;6.57;;;5.10;;
19341;SDS011;9807;48.258;12.690;2023-09-08T01:38:21;5.73;;;4.40;;
19341;SDS011;9807;48.258;12.690;2023-09-08T01:40:47;6.23;;;4.53;;
19341;SDS011;9807;48.258;12.690;2023-09-08T01:43:12;6.20;;;4.47;;
19341;SDS011;9807;48.258;12.690;2023-09-08T01:45:38;4.77;;;4.23;;
19341;SDS011;9807;48.258;12.690;2023-09-08T01:48:03;5.00;;;4.20;;
19341;SDS011;9807;48.258;12.690;2023-09-08T01:50:29;5.43;;;4.30;;
19341;SDS011;9807;48.258;12.690;2023-09-08T01:52:55;5.13;;;4.50;;
19341;SDS011;9807;48.258;12.690;2023-09-08T01:55:21;6.80;;;4.80;;
19341;SDS011;9807;48.258;12.690;2023-09-08T01:57:47;5.47;;;4.20;;
19341;SDS011;9807;48.258;12.690;2023-09-08T02:00:12;5.73;;;4.50;;
19341;SDS011;9807;48.258;12.690;2023-09-08T02:02:38;6.80;;;5.20;;
19341;SDS011;9807;48.258;12.690;2023-09-08T02:05:05;5.63;;;4.23;;
19341;SDS011;9807;48.258;12.690;2023-09-08T02:07:31;5.50;;;4.33;;
19341;SDS011;9807;48.258;12.690;2023-09-08T02:09:56;6.90;;;4.60;;
19341;SDS011;9807;48.258;12.690;2023-09-08T02:12:22;4.77;;;4.20;;
19341;SDS011;9807;48.258;12.690;2023-09-08T02:14:48;7.17;;;4.40;;
19341;SDS011;9807;48.258;12.690;2023-09-08T02:17:13;4.90;;;4.40;;
19341;SDS011;9807;48.258;12.690;2023-09-08T02:19:39;4.50;;;4.10;;
19341;SDS011;9807;48.258;12.690;2023-09-08T02:22:05;6.67;;;4.60;;
19341;SDS011;9807;48.258;12.690;2023-09-08T02:24:31;10.40;;;5.27;;
19341;SDS011;9807;48.258;12.690;2023-09-08T02:26:58;5.13;;;4.63;;
19341;SDS011;9807;48.258;12.690;2023-09-08T02:29:25;5.07;;;4.57;;
19341;SDS011;9807;48.258;12.690;2023-09-08T02:31:53;4.40;;;4.00;;
19341;SDS011;9807;48.258;12.690;2023-09-08T02:34:19;5.03;;;4.03;;
19341;SDS011;9807;48.258;12.690;2023-09-08T02:36:44;6.50;;;4.07;;
19341;SDS011;9807;48.258;12.690;2023-09-08T02:39:12;5.67;;;4.40;;
19341;SDS011;9807;48.258;12.690;2023-09-08T02:41:38;5.40;;;4.43;;
19341;SDS011;9807;48.258;12.690;2023-09-08T02:44:04;6.17;;;5.33;;
19341;SDS011;9807;48.258;12.690;2023-09-08T02:46:30;4.93;;;4.43;;
19341;SDS011;9807;48.258;12.690;2023-09-08T02:48:56;5.50;;;4.37;;
19341;SDS011;9807;48.258;12.690;2023-09-08T02:51:21;5.53;;;4.30;;
19341;SDS011;9807;48.258;12.690;2023-09-08T02:53:47;5.40;;;4.47;;
19341;SDS011;9807;48.258;12.690;2023-09-08T02:56:13;5.13;;;4.57;;
19341;SDS011;9807;48.258;12.690;2023-09-08T02:58:39;4.30;;;3.90;;
19341;SDS011;9807;48.258;12.690;2023-09-08T03:01:11;6.47;;;5.33;;
19341;SDS011;9807;48.258;12.690;2023-09-08T03:03:41;5.03;;;3.93;;
19341;SDS011;9807;48.258;12.690;2023-09-08T03:06:07;5.00;;;4.13;;
19341;SDS011;9807;48.258;12.690;2023-09-08T03:08:33;5.37;;;4.50;;
19341;SDS011;9807;48.258;12.690;2023-09-08T03:11:00;5.20;;;4.33;;
19341;SDS011;9807;48.258;12.690;2023-09-08T03:13:26;8.17;;;4.97;;
19341;SDS011;9807;48.258;12.690;2023-09-08T03:15:53;7.27;;;4.43;;
19341;SDS011;9807;48.258;12.690;2023-09-08T03:18:19;8.43;;;5.13;;
19341;SDS011;9807;48.258;12.690;2023-09-08T03:20:50;5.03;;;4.30;;
19341;SDS011;9807;48.258;12.690;2023-09-08T03:23:16;4.60;;;4.00;;
19341;SDS011;9807;48.258;12.690;2023-09-08T03:25:43;4.60;;;4.10;;
19341;SDS011;9807;48.258;12.690;2023-09-08T03:28:09;5.53;;;4.47;;
19341;SDS011;9807;48.258;12.690;2023-09-08T03:30:34;4.83;;;4.27;;
19341;SDS011;9807;48.258;12.690;2023-09-08T03:33:00;5.67;;;4.13;;
19341;SDS011;9807;48.258;12.690;2023-09-08T03:35:26;4.60;;;4.10;;
19341;SDS011;9807;48.258;12.690;2023-09-08T03:37:51;8.00;;;5.20;;
19341;SDS011;9807;48.258;12.690;2023-09-08T03:40:17;6.80;;;4.90;;
19341;SDS011;9807;48.258;12.690;2023-09-08T03:42:43;9.27;;;5.00;;
19341;SDS011;9807;48.258;12.690;2023-09-08T03:45:08;9.77;;;5.50;;
19341;SDS011;9807;48.258;12.690;2023-09-08T03:47:34;7.80;;;4.53;;
19341;SDS011;9807;48.258;12.690;2023-09-08T03:50:00;5.37;;;4.33;;
19341;SDS011;9807;48.258;12.690;2023-09-08T03:52:26;6.40;;;4.47;;
19341;SDS011;9807;48.258;12.690;2023-09-08T03:54:52;4.80;;;4.30;;
19341;SDS011;9807;48.258;12.690;2023-09-08T03:57:19;6.13;;;4.30;;
19341;SDS011;9807;48.258;12.690;2023-09-08T03:59:44;5.13;;;4.33;;
19341;SDS011;9807;48.258;12.690;2023-09-08T04:02:10;7.60;;;3.90;;
19341;SDS011;9807;48.258;12.690;2023-09-08T04:04:36;5.53;;;4.10;;
19341;SDS011;9807;48.258;12.690;2023-09-08T04:07:01;5.83;;;3.90;;
19341;SDS011;9807;48.258;12.690;2023-09-08T04:09:28;7.53;;;4.73;;
19341;SDS011;9807;48.258;12.690;2023-09-08T04:11:54;6.87;;;4.40;;
19341;SDS011;9807;48.258;12.690;2023-09-08T04:14:20;5.27;;;4.17;;
19341;SDS011;9807;48.258;12.690;2023-09-08T04:16:51;5.53;;;4.53;;
19341;SDS011;9807;48.258;12.690;2023-09-08T04:19:17;5.57;;;4.10;;
19341;SDS011;9807;48.258;12.690;2023-09-08T04:21:43;7.20;;;5.03;;
19341;SDS011;9807;48.258;12.690;2023-09-08T04:24:08;5.93;;;4.53;;
19341;SDS011;9807;48.258;12.690;2023-09-08T04:26:35;8.23;;;4.53;;
19341;SDS011;9807;48.258;12.690;2023-09-08T04:29:02;8.03;;;4.73;;
19341;SDS011;9807;48.258;12.690;2023-09-08T04:31:28;6.50;;;4.40;;
19341;SDS011;9807;48.258;12.690;2023-09-08T04:33:53;5.30;;;4.53;;
19341;SDS011;9807;48.258;12.690;2023-09-08T04:36:19;7.37;;;4.73;;
19341;SDS011;9807;48.258;12.690;2023-09-08T04:38:45;8.50;;;4.47;;
19341;SDS011;9807;48.258;12.690;2023-09-08T04:41:11;6.07;;;4.67;;
19341;SDS011;9807;48.258;12.690;2023-09-08T04:43:37;5.17;;;4.67;;
19341;SDS011;9807;48.258;12.690;2023-09-08T04:46:02;5.17;;;4.30;;
19341;SDS011;9807;48.258;12.690;2023-09-08T04:48:29;6.47;;;5.33;;
19341;SDS011;9807;48.258;12.690;2023-09-08T04:50:54;7.63;;;4.40;;
19341;SDS011;9807;48.258;12.690;2023-09-08T04:53:23;7.30;;;4.70;;
19341;SDS011;9807;48.258;12.690;2023-09-08T04:55:49;12.73;;;5.50;;
19341;SDS011;9807;48.258;12.690;2023-09-08T04:58:14;5.97;;;4.83;;
19341;SDS011;9807;48.258;12.690;2023-09-08T05:00:43;11.53;;;5.50;;
19341;SDS011;9807;48.258;12.690;2023-09-08T05:03:09;14.40;;;6.13;;
19341;SDS011;9807;48.258;12.690;2023-09-08T05:05:35;8.30;;;5.00;;
19341;SDS011;9807;48.258;12.690;2023-09-08T05:08:03;5.27;;;4.50;;
19341;SDS011;9807;48.258;12.690;2023-09-08T05:10:29;5.43;;;4.40;;
19341;SDS011;9807;48.258;12.690;2023-09-08T05:12:54;6.07;;;4.73;;
19341;SDS011;9807;48.258;12.690;2023-09-08T05:15:20;5.20;;;4.53;;
19341;SDS011;9807;48.258;12.690;2023-09-08T05:17:47;9.00;;;4.97;;
19341;SDS011;9807;48.258;12.690;2023-09-08T05:20:12;5.60;;;4.00;;
19341;SDS011;9807;48.258;12.690;2023-09-08T05:22:38;5.00;;;4.10;;
19341;SDS011;9807;48.258;12.690;2023-09-08T05:25:04;5.13;;;4.30;;
19341;SDS011;9807;48.258;12.690;2023-09-08T05:27:30;11.30;;;5.70;;
19341;SDS011;9807;48.258;12.690;2023-09-08T05:29:57;13.77;;;7.40;;
19341;SDS011;9807;48.258;12.690;2023-09-08T05:32:24;14.77;;;7.73;;
19341;SDS011;9807;48.258;12.690;2023-09-08T05:34:51;11.57;;;7.17;;
19341;SDS011;9807;48.258;12.690;2023-09-08T05:37:17;12.10;;;7.77;;
19341;SDS011;9807;48.258;12.690;2023-09-08T05:39:46;8.57;;;5.83;;
19341;SDS011;9807;48.258;12.690;2023-09-08T05:42:11;11.50;;;6.10;;
19341;SDS011;9807;48.258;12.690;2023-09-08T05:44:37;6.47;;;5.20;;
19341;SDS011;9807;48.258;12.690;2023-09-08T05:47:03;7.40;;;5.27;;
19341;SDS011;9807;48.258;12.690;2023-09-08T05:49:30;7.37;;;5.03;;
19341;SDS011;9807;48.258;12.690;2023-09-08T05:51:55;6.10;;;4.83;;
19341;SDS011;9807;48.258;12.690;2023-09-08T05:54:21;5.73;;;4.73;;
19341;SDS011;9807;48.258;12.690;2023-09-08T05:56:46;7.50;;;5.50;;
19341;SDS011;9807;48.258;12.690;2023-09-08T05:59:18;10.43;;;6.90;;
19341;SDS011;9807;48.258;12.690;2023-09-08T06:01:44;6.85;;;5.50;;
19341;SDS011;9807;48.258;12.690;2023-09-08T06:04:09;7.60;;;5.60;;
19341;SDS011;9807;48.258;12.690;2023-09-08T06:06:35;6.03;;;5.30;;
19341;SDS011;9807;48.258;12.690;2023-09-08T06:09:01;8.73;;;6.27;;
19341;SDS011;9807;48.258;12.690;2023-09-08T06:11:28;11.33;;;5.77;;
19341;SDS011;9807;48.258;12.690;2023-09-08T06:13:53;10.80;;;7.10;;
19341;SDS011;9807;48.258;12.690;2023-09-08T06:16:23;11.43;;;6.90;;
19341;SDS011;9807;48.258;12.690;2023-09-08T06:18:52;13.90;;;6.47;;
19341;SDS011;9807;48.258;12.690;2023-09-08T06:21:18;9.63;;;6.47;;
19341;SDS011;9807;48.258;12.690;2023-09-08T06:23:43;12.65;;;7.00;;
19341;SDS011;9807;48.258;12.690;2023-09-08T06:26:09;9.30;;;6.73;;
19341;SDS011;9807;48.258;12.690;2023-09-08T06:28:35;8.40;;;6.50;;
19341;SDS011;9807;48.258;12.690;2023-09-08T06:31:00;10.23;;;6.27;;
19341;SDS011;9807;48.258;12.690;2023-09-08T06:33:26;7.87;;;6.23;;
19341;SDS011;9807;48.258;12.690;2023-09-08T06:35:52;9.23;;;6.10;;
19341;SDS011;9807;48.258;12.690;2023-09-08T06:38:18;11.00;;;7.03;;
19341;SDS011;9807;48.258;12.690;2023-09-08T06:40:44;9.53;;;6.57;;
19341;SDS011;9807;48.258;12.690;2023-09-08T06:43:11;10.57;;;6.40;;
19341;SDS011;9807;48.258;12.690;2023-09-08T06:45:38;12.23;;;6.90;;
19341;SDS011;9807;48.258;12.690;2023-09-08T06:48:05;12.53;;;6.70;;
19341;SDS011;9807;48.258;12.690;2023-09-08T06:50:34;10.60;;;6.30;;
19341;SDS011;9807;48.258;12.690;2023-09-08T06:53:02;9.90;;;6.33;;
19341;SDS011;9807;48.258;12.690;2023-09-08T06:55:28;9.67;;;5.90;;
19341;SDS011;9807;48.258;12.690;2023-09-08T06:58:00;8.20;;;6.60;;
19341;SDS011;9807;48.258;12.690;2023-09-08T07:00:26;11.30;;;5.93;;
19341;SDS011;9807;48.258;12.690;2023-09-08T07:02:55;12.60;;;6.60;;
19341;SDS011;9807;48.258;12.690;2023-09-08T07:05:27;8.83;;;6.30;;
19341;SDS011;9807;48.258;12.690;2023-09-08T07:07:53;10.73;;;6.13;;
19341;SDS011;9807;48.258;12.690;2023-09-08T07:10:20;8.77;;;6.30;;
19341;SDS011;9807;48.258;12.690;2023-09-08T07:12:50;9.57;;;6.27;;
19341;SDS011;9807;48.258;12.690;2023-09-08T07:15:16;7.20;;;6.00;;
19341;SDS011;9807;48.258;12.690;2023-09-08T07:17:42;7.40;;;6.00;;
19341;SDS011;9807;48.258;12.690;2023-09-08T07:20:08;7.40;;;6.20;;
19341;SDS011;9807;48.258;12.690;2023-09-08T07:22:34;10.60;;;5.63;;
19341;SDS011;9807;48.258;12.690;2023-09-08T07:24:59;7.47;;;6.20;;
19341;SDS011;9807;48.258;12.690;2023-09-08T07:27:28;6.60;;;6.00;;
19341;SDS011;9807;48.258;12.690;2023-09-08T07:30:00;8.40;;;5.97;;
19341;SDS011;9807;48.258;12.690;2023-09-08T07:32:26;8.10;;;5.60;;
19341;SDS011;9807;48.258;12.690;2023-09-08T07:34:51;8.57;;;5.80;;
19341;SDS011;9807;48.258;12.690;2023-09-08T07:37:23;9.53;;;6.33;;
19341;SDS011;9807;48.258;12.690;2023-09-08T07:39:54;7.43;;;6.13;;
19341;SDS011;9807;48.258;12.690;2023-09-08T07:42:20;7.17;;;5.80;;
19341;SDS011;9807;48.258;12.690;2023-09-08T07:44:47;13.10;;;6.10;;
19341;SDS011;9807;48.258;12.690;2023-09-08T07:47:15;12.03;;;5.97;;
19341;SDS011;9807;48.258;12.690;2023-09-08T07:49:45;6.77;;;6.00;;
19341;SDS011;9807;48.258;12.690;2023-09-08T07:52:13;7.70;;;6.00;;
19341;SDS011;9807;48.258;12.690;2023-09-08T07:54:39;8.97;;;5.70;;
19341;SDS011;9807;48.258;12.690;2023-09-08T07:57:04;6.57;;;5.60;;
19341;SDS011;9807;48.258;12.690;2023-09-08T07:59:32;6.87;;;5.10;;
19341;SDS011;9807;48.258;12.690;2023-09-08T08:01:58;7.70;;;5.00;;
19341;SDS011;9807;48.258;12.690;2023-09-08T08:04:23;6.40;;;5.13;;
19341;SDS011;9807;48.258;12.690;2023-09-08T08:06:53;7.90;;;5.67;;
19341;SDS011;9807;48.258;12.690;2023-09-08T08:09:18;9.33;;;5.40;;
19341;SDS011;9807;48.258;12.690;2023-09-08T08:11:47;7.27;;;5.83;;
19341;SDS011;9807;48.258;12.690;2023-09-08T08:14:12;6.17;;;5.30;;
19341;SDS011;9807;48.258;12.690;2023-09-08T08:16:41;6.03;;;5.43;;
19341;SDS011;9807;48.258;12.690;2023-09-08T08:19:07;7.23;;;5.33;;
19341;SDS011;9807;48.258;12.690;2023-09-08T08:21:33;7.07;;;5.17;;
19341;SDS011;9807;48.258;12.690;2023-09-08T08:23:59;6.87;;;5.90;;
19341;SDS011;9807;48.258;12.690;2023-09-08T08:26:25;7.57;;;5.87;;
19341;SDS011;9807;48.258;12.690;2023-09-08T08:28:54;10.03;;;5.90;;
19341;SDS011;9807;48.258;12.690;2023-09-08T08:31:20;9.50;;;5.80;;
19341;SDS011;9807;48.258;12.690;2023-09-08T08:33:46;6.17;;;5.50;;
19341;SDS011;9807;48.258;12.690;2023-09-08T08:36:12;11.10;;;5.47;;
19341;SDS011;9807;48.258;12.690;2023-09-08T08:38:40;9.53;;;5.73;;
19341;SDS011;9807;48.258;12.690;2023-09-08T08:41:06;10.93;;;6.47;;
19341;SDS011;9807;48.258;12.690;2023-09-08T08:43:31;8.97;;;6.00;;
19341;SDS011;9807;48.258;12.690;2023-09-08T08:45:57;8.23;;;6.17;;
19341;SDS011;9807;48.258;12.690;2023-09-08T08:48:25;7.17;;;5.37;;
19341;SDS011;9807;48.258;12.690;2023-09-08T08:50:52;10.03;;;5.53;;
19341;SDS011;9807;48.258;12.690;2023-09-08T08:53:20;7.17;;;5.60;;
19341;SDS011;9807;48.258;12.690;2023-09-08T08:55:47;7.20;;;5.73;;
19341;SDS011;9807;48.258;12.690;2023-09-08T08:58:17;6.87;;;5.37;;
19341;SDS011;9807;48.258;12.690;2023-09-08T09:00:50;5.70;;;5.07;;
19341;SDS011;9807;48.258;12.690;2023-09-08T09:03:19;6.60;;;5.30;;
19341;SDS011;9807;48.258;12.690;2023-09-08T09:05:47;8.63;;;5.27;;
19341;SDS011;9807;48.258;12.690;2023-09-08T09:08:14;5.77;;;4.80;;
19341;SDS011;9807;48.258;12.690;2023-09-08T09:10:41;7.60;;;5.43;;
19341;SDS011;9807;48.258;12.690;2023-09-08T09:13:07;8.27;;;5.40;;
19341;SDS011;9807;48.258;12.690;2023-09-08T09:15:33;9.87;;;6.00;;
19341;SDS011;9807;48.258;12.690;2023-09-08T09:18:02;6.83;;;6.10;;
19341;SDS011;9807;48.258;12.690;2023-09-08T09:20:32;9.63;;;5.63;;
19341;SDS011;9807;48.258;12.690;2023-09-08T09:22:58;8.30;;;5.80;;
19341;SDS011;9807;48.258;12.690;2023-09-08T09:25:29;8.13;;;5.80;;
19341;SDS011;9807;48.258;12.690;2023-09-08T09:27:59;7.63;;;5.23;;
19341;SDS011;9807;48.258;12.690;2023-09-08T09:33:11;8.73;;;5.47;;
19341;SDS011;9807;48.258;12.690;2023-09-08T09:35:44;6.87;;;5.93;;
19341;SDS011;9807;48.258;12.690;2023-09-08T09:38:19;5.90;;;5.27;;
19341;SDS011;9807;48.258;12.690;2023-09-08T09:40:49;9.30;;;5.50;;
19341;SDS011;9807;48.258;12.690;2023-09-08T09:43:20;7.97;;;6.30;;
19341;SDS011;9807;48.258;12.690;2023-09-08T09:45:47;7.10;;;5.37;;
19341;SDS011;9807;48.258;12.690;2023-09-08T09:48:13;6.17;;;5.40;;
19341;SDS011;9807;48.258;12.690;2023-09-08T09:50:41;7.00;;;5.60;;
19341;SDS011;9807;48.258;12.690;2023-09-08T09:53:15;6.43;;;5.63;;
19341;SDS011;9807;48.258;12.690;2023-09-08T09:55:42;11.00;;;5.67;;
19341;SDS011;9807;48.258;12.690;2023-09-08T10:00:52;10.70;;;6.30;;
19341;SDS011;9807;48.258;12.690;2023-09-08T10:03:19;7.07;;;5.53;;
19341;SDS011;9807;48.258;12.690;2023-09-08T10:05:50;9.23;;;6.10;;
19341;SDS011;9807;48.258;12.690;2023-09-08T10:08:21;6.13;;;5.53;;
19341;SDS011;9807;48.258;12.690;2023-09-08T10:10:47;7.60;;;5.37;;
19341;SDS011;9807;48.258;12.690;2023-09-08T10:13:15;6.70;;;5.60;;
19341;SDS011;9807;48.258;12.690;2023-09-08T10:15:48;7.78;;;6.15;;
19341;SDS011;9807;48.258;12.690;2023-09-08T10:18:16;8.43;;;5.50;;
19341;SDS011;9807;48.258;12.690;2023-09-08T10:20:44;7.90;;;5.87;;
19341;SDS011;9807;48.258;12.690;2023-09-08T10:23:13;12.10;;;6.03;;
19341;SDS011;9807;48.258;12.690;2023-09-08T10:26:03;7.23;;;5.70;;
19341;SDS011;9807;48.258;12.690;2023-09-08T10:28:34;8.63;;;5.33;;
19341;SDS011;9807;48.258;12.690;2023-09-08T10:31:01;7.55;;;5.72;;
19341;SDS011;9807;48.258;12.690;2023-09-08T10:33:28;13.23;;;8.70;;
19341;SDS011;9807;48.258;12.690;2023-09-08T10:35:55;7.83;;;5.80;;
19341;SDS011;9807;48.258;12.690;2023-09-08T10:40:53;8.73;;;7.23;;
19341;SDS011;9807;48.258;12.690;2023-09-08T10:43:39;14.57;;;6.20;;
19341;SDS011;9807;48.258;12.690;2023-09-08T10:46:09;10.43;;;6.33;;
19341;SDS011;9807;48.258;12.690;2023-09-08T10:48:41;9.67;;;6.73;;
19341;SDS011;9807;48.258;12.690;2023-09-08T10:51:16;9.30;;;6.20;;
19341;SDS011;9807;48.258;12.690;2023-09-08T10:53:42;10.53;;;6.50;;
19341;SDS011;9807;48.258;12.690;2023-09-08T10:56:11;6.70;;;5.60;;
19341;SDS011;9807;48.258;12.690;2023-09-08T10:58:37;8.17;;;6.50;;
19341;SDS011;9807;48.258;12.690;2023-09-08T11:01:12;8.33;;;6.03;;
19341;SDS011;9807;48.258;12.690;2023-09-08T11:06:14;10.50;;;5.93;;
19341;SDS011;9807;48.258;12.690;2023-09-08T11:08:43;7.73;;;5.67;;
19341;SDS011;9807;48.258;12.690;2023-09-08T11:11:13;8.83;;;5.47;;
19341;SDS011;9807;48.258;12.690;2023-09-08T11:13:39;7.60;;;5.57;;
19341;SDS011;9807;48.258;12.690;2023-09-08T11:16:06;6.53;;;5.73;;
19341;SDS011;9807;48.258;12.690;2023-09-08T11:18:32;7.60;;;5.63;;
19341;SDS011;9807;48.258;12.690;2023-09-08T11:21:00;6.50;;;5.70;;
19341;SDS011;9807;48.258;12.690;2023-09-08T11:23:27;7.60;;;6.20;;
19341;SDS011;9807;48.258;12.690;2023-09-08T11:25:53;6.93;;;5.77;;
19341;SDS011;9807;48.258;12.690;2023-09-08T11:28:19;8.07;;;6.93;;
19341;SDS011;9807;48.258;12.690;2023-09-08T11:30:47;7.27;;;5.70;;
19341;SDS011;9807;48.258;12.690;2023-09-08T11:33:16;11.00;;;6.20;;
19341;SDS011;9807;48.258;12.690;2023-09-08T11:35:45;8.83;;;6.33;;
19341;SDS011;9807;48.258;12.690;2023-09-08T11:38:12;9.13;;;5.80;;
19341;SDS011;9807;48.258;12.690;2023-09-08T11:40:37;6.57;;;5.57;;
19341;SDS011;9807;48.258;12.690;2023-09-08T11:43:04;9.47;;;5.83;;
19341;SDS011;9807;48.258;12.690;2023-09-08T11:45:31;9.13;;;5.60;;
19341;SDS011;9807;48.258;12.690;2023-09-08T11:48:00;7.67;;;5.63;;
19341;SDS011;9807;48.258;12.690;2023-09-08T11:50:26;8.63;;;6.27;;
19341;SDS011;9807;48.258;12.690;2023-09-08T11:52:52;8.67;;;5.50;;
19341;SDS011;9807;48.258;12.690;2023-09-08T11:55:20;8.60;;;5.70;;
19341;SDS011;9807;48.258;12.690;2023-09-08T11:57:52;9.00;;;6.10;;
19341;SDS011;9807;48.258;12.690;2023-09-08T12:00:27;7.70;;;6.33;;
19341;SDS011;9807;48.258;12.690;2023-09-08T12:02:54;8.37;;;5.80;;
19341;SDS011;9807;48.258;12.690;2023-09-08T12:05:26;7.60;;;5.87;;
19341;SDS011;9807;48.258;12.690;2023-09-08T12:07:54;7.87;;;5.90;;
19341;SDS011;9807;48.258;12.690;2023-09-08T12:10:21;8.40;;;6.00;;
19341;SDS011;9807;48.258;12.690;2023-09-08T12:12:48;6.37;;;5.77;;
19341;SDS011;9807;48.258;12.690;2023-09-08T12:17:58;17.73;;;12.20;;
19341;SDS011;9807;48.258;12.690;2023-09-08T12:20:28;20.23;;;13.27;;
19341;SDS011;9807;48.258;12.690;2023-09-08T12:22:56;11.53;;;9.10;;
19341;SDS011;9807;48.258;12.690;2023-09-08T12:25:27;9.90;;;7.93;;
19341;SDS011;9807;48.258;12.690;2023-09-08T12:27:54;8.67;;;6.93;;
19341;SDS011;9807;48.258;12.690;2023-09-08T12:30:22;11.53;;;6.10;;
19341;SDS011;9807;48.258;12.690;2023-09-08T12:32:57;6.57;;;5.80;;
19341;SDS011;9807;48.258;12.690;2023-09-08T12:35:25;9.17;;;6.40;;
19341;SDS011;9807;48.258;12.690;2023-09-08T12:38:04;6.43;;;5.57;;
19341;SDS011;9807;48.258;12.690;2023-09-08T12:40:36;6.27;;;5.60;;
19341;SDS011;9807;48.258;12.690;2023-09-08T12:43:03;8.53;;;5.97;;
19341;SDS011;9807;48.258;12.690;2023-09-08T12:45:29;7.10;;;5.50;;
19341;SDS011;9807;48.258;12.690;2023-09-08T12:47:57;12.43;;;5.67;;
19341;SDS011;9807;48.258;12.690;2023-09-08T12:50:27;10.73;;;5.73;;
19341;SDS011;9807;48.258;12.690;2023-09-08T12:52:53;7.60;;;5.30;;
19341;SDS011;9807;48.258;12.690;2023-09-08T12:55:19;6.00;;;5.40;;
19341;SDS011;9807;48.258;12.690;2023-09-08T12:57:44;6.33;;;5.63;;
19341;SDS011;9807;48.258;12.690;2023-09-08T13:00:12;9.00;;;5.80;;
19341;SDS011;9807;48.258;12.690;2023-09-08T13:02:39;7.13;;;5.43;;
19341;SDS011;9807;48.258;12.690;2023-09-08T13:05:08;8.17;;;5.60;;
19341;SDS011;9807;48.258;12.690;2023-09-08T13:07:34;8.00;;;5.67;;
19341;SDS011;9807;48.258;12.690;2023-09-08T13:10:00;7.53;;;5.90;;
19341;SDS011;9807;48.258;12.690;2023-09-08T13:12:26;9.93;;;5.80;;
19341;SDS011;9807;48.258;12.690;2023-09-08T13:14:52;7.30;;;5.20;;
19341;SDS011;9807;48.258;12.690;2023-09-08T13:17:18;6.97;;;6.00;;
19341;SDS011;9807;48.258;12.690;2023-09-08T13:19:44;8.60;;;5.90;;
19341;SDS011;9807;48.258;12.690;2023-09-08T13:22:10;6.33;;;5.40;;
19341;SDS011;9807;48.258;12.690;2023-09-08T13:24:36;9.63;;;5.80;;
19341;SDS011;9807;48.258;12.690;2023-09-08T13:27:02;9.17;;;5.60;;
19341;SDS011;9807;48.258;12.690;2023-09-08T13:29:28;5.77;;;5.17;;
19341;SDS011;9807;48.258;12.690;2023-09-08T13:31:54;7.57;;;5.73;;
19341;SDS011;9807;48.258;12.690;2023-09-08T13:34:20;10.00;;;5.90;;
19341;SDS011;9807;48.258;12.690;2023-09-08T13:36:46;7.70;;;5.87;;
19341;SDS011;9807;48.258;12.690;2023-09-08T13:39:13;7.20;;;5.50;;
19341;SDS011;9807;48.258;12.690;2023-09-08T13:41:45;6.17;;;5.53;;
19341;SDS011;9807;48.258;12.690;2023-09-08T13:44:21;7.87;;;5.50;;
19341;SDS011;9807;48.258;12.690;2023-09-08T13:46:52;7.50;;;5.27;;
19341;SDS011;9807;48.258;12.690;2023-09-08T13:49:21;7.43;;;5.60;;
19341;SDS011;9807;48.258;12.690;2023-09-08T13:51:48;6.40;;;5.40;;
19341;SDS011;9807;48.258;12.690;2023-09-08T13:54:18;9.17;;;5.97;;
19341;SDS011;9807;48.258;12.690;2023-09-08T13:56:44;7.83;;;5.43;;
19341;SDS011;9807;48.258;12.690;2023-09-08T13:59:09;5.77;;;5.17;;
19341;SDS011;9807;48.258;12.690;2023-09-08T14:01:36;6.70;;;5.60;;
19341;SDS011;9807;48.258;12.690;2023-09-08T14:04:03;6.10;;;5.50;;
19341;SDS011;9807;48.258;12.690;2023-09-08T14:06:31;7.07;;;5.30;;
19341;SDS011;9807;48.258;12.690;2023-09-08T14:08:57;11.23;;;5.83;;
19341;SDS011;9807;48.258;12.690;2023-09-08T14:11:23;8.60;;;5.70;;
19341;SDS011;9807;48.258;12.690;2023-09-08T14:13:51;6.97;;;5.50;;
19341;SDS011;9807;48.258;12.690;2023-09-08T14:16:17;7.77;;;5.53;;
19341;SDS011;9807;48.258;12.690;2023-09-08T14:18:44;8.17;;;5.70;;
19341;SDS011;9807;48.258;12.690;2023-09-08T14:21:09;6.53;;;5.20;;
19341;SDS011;9807;48.258;12.690;2023-09-08T14:23:35;8.23;;;5.97;;
19341;SDS011;9807;48.258;12.690;2023-09-08T14:26:02;7.57;;;5.17;;
19341;SDS011;9807;48.258;12.690;2023-09-08T14:28:28;6.70;;;6.00;;
19341;SDS011;9807;48.258;12.690;2023-09-08T14:30:57;8.93;;;5.20;;
19341;SDS011;9807;48.258;12.690;2023-09-08T14:33:23;5.87;;;5.20;;
19341;SDS011;9807;48.258;12.690;2023-09-08T14:35:48;5.73;;;5.10;;
19341;SDS011;9807;48.258;12.690;2023-09-08T14:38:20;6.23;;;5.40;;
19341;SDS011;9807;48.258;12.690;2023-09-08T14:40:56;6.33;;;5.23;;
19341;SDS011;9807;48.258;12.690;2023-09-08T14:43:22;6.50;;;5.07;;
19341;SDS011;9807;48.258;12.690;2023-09-08T14:45:50;6.37;;;5.40;;
19341;SDS011;9807;48.258;12.690;2023-09-08T14:48:17;10.63;;;5.53;;
19341;SDS011;9807;48.258;12.690;2023-09-08T14:50:43;9.10;;;5.10;;
19341;SDS011;9807;48.258;12.690;2023-09-08T14:53:10;7.30;;;5.70;;
19341;SDS011;9807;48.258;12.690;2023-09-08T14:55:37;7.47;;;5.13;;
19341;SDS011;9807;48.258;12.690;2023-09-08T14:58:04;9.83;;;5.83;;
19341;SDS011;9807;48.258;12.690;2023-09-08T15:00:29;6.80;;;5.80;;
19341;SDS011;9807;48.258;12.690;2023-09-08T15:02:55;6.10;;;5.20;;